Главная страница
METAR-TAF:

METAR-TAF

Аэропорты :

Butler, Пенсильвания, США

широта: 40-47N, долгота: 079-57W, высота над уровнем моря: 380 м

Текущие метеонаблюдения

Эта сводка был подготовлена 29 минут назад, в 09:56 UTC
Штиль
Температура 13°C
Влажность 94%
Давление 1021 hPa
Видимость: 16.1 км
Отдельные облака на высоте 8000 фута

METAR: KBTP 060956Z AUTO 00000KT 10SM SCT080 13/12 A3015 RMK AO2 SLP210 T01280122

Время: 06:25 (10:25 UTC)


TAF: отсутствует

Метеонаблюдения и прогнозы для более 4000 аэропортов (сводки METAR и TAF).

Имеющиеся станции представлены на карте желтыми и красными точками.

Чтобы увидеть название станции, наведите на нее мышь.

Затем щелкните, чтобы увидеть метеонаблюдения и метеопрогнозы.

Управление картой: чтобы увеличить масштаб, щелкните зеленые кнопки с черным крестиком; чтобы уменьшить масштаб, щелкните зеленую кнопку с тире; для просмотра соседних карт щелкайте зеленые стрелки.


METAR-TAF: